sensor_id;sensor_type;location;lat;lon;timestamp;temperature;humidity
25556;DHT22;13447;57.174;-2.112;2023-04-03T00:00:31;4.90;99.90
25556;DHT22;13447;57.174;-2.112;2023-04-03T00:02:58;4.90;99.90
25556;DHT22;13447;57.174;-2.112;2023-04-03T00:05:25;4.90;99.90
25556;DHT22;13447;57.174;-2.112;2023-04-03T00:07:52;4.80;99.90
25556;DHT22;13447;57.174;-2.112;2023-04-03T00:10:19;4.80;99.90
25556;DHT22;13447;57.174;-2.112;2023-04-03T00:12:46;4.80;99.90
25556;DHT22;13447;57.174;-2.112;2023-04-03T00:15:13;4.80;99.90
25556;DHT22;13447;57.174;-2.112;2023-04-03T00:17:40;4.70;99.90
25556;DHT22;13447;57.174;-2.112;2023-04-03T00:20:07;4.60;99.90
25556;DHT22;13447;57.174;-2.112;2023-04-03T00:22:34;4.50;99.90
25556;DHT22;13447;57.174;-2.112;2023-04-03T00:25:00;4.50;99.90
25556;DHT22;13447;57.174;-2.112;2023-04-03T00:27:27;4.40;99.90
25556;DHT22;13447;57.174;-2.112;2023-04-03T00:29:54;4.30;99.90
25556;DHT22;13447;57.174;-2.112;2023-04-03T00:32:21;4.30;99.90
25556;DHT22;13447;57.174;-2.112;2023-04-03T00:34:48;4.30;99.90
25556;DHT22;13447;57.174;-2.112;2023-04-03T00:37:15;4.30;99.90
25556;DHT22;13447;57.174;-2.112;2023-04-03T00:39:41;4.20;99.90
25556;DHT22;13447;57.174;-2.112;2023-04-03T00:42:08;4.20;99.90
25556;DHT22;13447;57.174;-2.112;2023-04-03T00:47:02;4.20;99.90
25556;DHT22;13447;57.174;-2.112;2023-04-03T00:49:30;4.20;99.90
25556;DHT22;13447;57.174;-2.112;2023-04-03T00:51:57;4.20;99.90
25556;DHT22;13447;57.174;-2.112;2023-04-03T00:54:24;4.20;99.90
25556;DHT22;13447;57.174;-2.112;2023-04-03T00:56:51;4.20;99.90
25556;DHT22;13447;57.174;-2.112;2023-04-03T00:59:21;4.20;99.90
25556;DHT22;13447;57.174;-2.112;2023-04-03T01:01:49;4.20;99.90
25556;DHT22;13447;57.174;-2.112;2023-04-03T01:04:30;4.30;99.90
25556;DHT22;13447;57.174;-2.112;2023-04-03T01:06:58;4.40;99.90
25556;DHT22;13447;57.174;-2.112;2023-04-03T01:09:26;4.40;99.90
25556;DHT22;13447;57.174;-2.112;2023-04-03T01:11:53;4.40;99.90
25556;DHT22;13447;57.174;-2.112;2023-04-03T01:14:20;4.50;99.90
25556;DHT22;13447;57.174;-2.112;2023-04-03T01:16:55;4.40;99.90
25556;DHT22;13447;57.174;-2.112;2023-04-03T01:19:22;4.40;99.90
25556;DHT22;13447;57.174;-2.112;2023-04-03T01:22:11;4.30;99.90
25556;DHT22;13447;57.174;-2.112;2023-04-03T01:24:42;4.30;99.90
25556;DHT22;13447;57.174;-2.112;2023-04-03T01:27:09;4.30;99.90
25556;DHT22;13447;57.174;-2.112;2023-04-03T01:29:36;4.30;99.90
25556;DHT22;13447;57.174;-2.112;2023-04-03T01:32:04;4.30;99.90
25556;DHT22;13447;57.174;-2.112;2023-04-03T01:34:31;4.30;99.90
25556;DHT22;13447;57.174;-2.112;2023-04-03T01:36:58;4.30;99.90
25556;DHT22;13447;57.174;-2.112;2023-04-03T01:39:24;4.20;99.90
25556;DHT22;13447;57.174;-2.112;2023-04-03T01:41:51;4.20;99.90
25556;DHT22;13447;57.174;-2.112;2023-04-03T01:44:18;4.20;99.90
25556;DHT22;13447;57.174;-2.112;2023-04-03T01:46:45;4.20;99.90
25556;DHT22;13447;57.174;-2.112;2023-04-03T01:49:12;4.10;99.90
25556;DHT22;13447;57.174;-2.112;2023-04-03T01:51:39;4.10;99.90
25556;DHT22;13447;57.174;-2.112;2023-04-03T01:54:06;4.10;99.90
25556;DHT22;13447;57.174;-2.112;2023-04-03T01:56:33;4.00;99.90
25556;DHT22;13447;57.174;-2.112;2023-04-03T01:59:00;4.00;99.90
25556;DHT22;13447;57.174;-2.112;2023-04-03T02:01:27;4.10;99.90
25556;DHT22;13447;57.174;-2.112;2023-04-03T02:03:54;4.10;99.90
25556;DHT22;13447;57.174;-2.112;2023-04-03T02:06:21;4.00;99.90
25556;DHT22;13447;57.174;-2.112;2023-04-03T02:08:47;4.10;99.90
25556;DHT22;13447;57.174;-2.112;2023-04-03T02:11:14;4.10;99.90
25556;DHT22;13447;57.174;-2.112;2023-04-03T02:13:41;4.10;99.90
25556;DHT22;13447;57.174;-2.112;2023-04-03T02:16:08;4.10;99.90
25556;DHT22;13447;57.174;-2.112;2023-04-03T02:18:36;4.10;99.90
25556;DHT22;13447;57.174;-2.112;2023-04-03T02:21:03;4.10;99.90
25556;DHT22;13447;57.174;-2.112;2023-04-03T02:23:30;4.10;99.90
25556;DHT22;13447;57.174;-2.112;2023-04-03T02:26:07;4.10;99.90
25556;DHT22;13447;57.174;-2.112;2023-04-03T02:28:34;4.10;99.90
25556;DHT22;13447;57.174;-2.112;2023-04-03T02:31:02;4.10;99.90
25556;DHT22;13447;57.174;-2.112;2023-04-03T02:33:29;4.10;99.90
25556;DHT22;13447;57.174;-2.112;2023-04-03T02:35:56;4.10;99.90
25556;DHT22;13447;57.174;-2.112;2023-04-03T02:38:23;4.00;99.90
25556;DHT22;13447;57.174;-2.112;2023-04-03T02:40:50;4.00;99.90
25556;DHT22;13447;57.174;-2.112;2023-04-03T02:43:18;4.00;99.90
25556;DHT22;13447;57.174;-2.112;2023-04-03T02:45:45;4.10;99.90
25556;DHT22;13447;57.174;-2.112;2023-04-03T02:48:11;4.20;99.90
25556;DHT22;13447;57.174;-2.112;2023-04-03T02:50:38;4.20;99.90
25556;DHT22;13447;57.174;-2.112;2023-04-03T02:53:05;4.30;99.90
25556;DHT22;13447;57.174;-2.112;2023-04-03T02:55:32;4.30;99.90
25556;DHT22;13447;57.174;-2.112;2023-04-03T02:57:59;4.30;99.90
25556;DHT22;13447;57.174;-2.112;2023-04-03T03:00:25;4.40;99.90
25556;DHT22;13447;57.174;-2.112;2023-04-03T03:02:52;4.50;99.90
25556;DHT22;13447;57.174;-2.112;2023-04-03T03:05:19;4.40;99.90
25556;DHT22;13447;57.174;-2.112;2023-04-03T03:07:46;4.50;99.90
25556;DHT22;13447;57.174;-2.112;2023-04-03T03:10:13;4.50;99.90
25556;DHT22;13447;57.174;-2.112;2023-04-03T03:12:40;4.40;99.90
25556;DHT22;13447;57.174;-2.112;2023-04-03T03:15:07;4.50;99.90
25556;DHT22;13447;57.174;-2.112;2023-04-03T03:17:33;4.40;99.90
25556;DHT22;13447;57.174;-2.112;2023-04-03T03:20:05;4.60;99.90
25556;DHT22;13447;57.174;-2.112;2023-04-03T03:22:33;4.70;99.90
25556;DHT22;13447;57.174;-2.112;2023-04-03T03:25:00;4.70;99.90
25556;DHT22;13447;57.174;-2.112;2023-04-03T03:27:27;4.80;99.90
25556;DHT22;13447;57.174;-2.112;2023-04-03T03:39:42;5.10;99.90
25556;DHT22;13447;57.174;-2.112;2023-04-03T03:42:09;5.10;99.90
25556;DHT22;13447;57.174;-2.112;2023-04-03T03:44:36;5.10;99.90
25556;DHT22;13447;57.174;-2.112;2023-04-03T03:47:03;5.20;99.90
25556;DHT22;13447;57.174;-2.112;2023-04-03T03:49:30;5.20;99.90
25556;DHT22;13447;57.174;-2.112;2023-04-03T03:51:56;5.20;99.90
25556;DHT22;13447;57.174;-2.112;2023-04-03T03:54:23;5.20;99.90
25556;DHT22;13447;57.174;-2.112;2023-04-03T03:56:50;5.20;99.90
25556;DHT22;13447;57.174;-2.112;2023-04-03T03:59:17;5.20;99.90
25556;DHT22;13447;57.174;-2.112;2023-04-03T04:01:44;5.30;99.90
25556;DHT22;13447;57.174;-2.112;2023-04-03T04:04:11;5.30;99.90
25556;DHT22;13447;57.174;-2.112;2023-04-03T04:06:38;5.30;99.90
25556;DHT22;13447;57.174;-2.112;2023-04-03T04:09:05;5.40;99.90
25556;DHT22;13447;57.174;-2.112;2023-04-03T04:11:31;5.40;99.90
25556;DHT22;13447;57.174;-2.112;2023-04-03T04:13:59;5.40;99.90
25556;DHT22;13447;57.174;-2.112;2023-04-03T04:16:26;5.50;99.90
25556;DHT22;13447;57.174;-2.112;2023-04-03T04:18:53;5.50;99.90
25556;DHT22;13447;57.174;-2.112;2023-04-03T04:21:20;5.50;99.90
25556;DHT22;13447;57.174;-2.112;2023-04-03T04:23:47;5.50;99.90
25556;DHT22;13447;57.174;-2.112;2023-04-03T04:26:14;5.50;99.90
25556;DHT22;13447;57.174;-2.112;2023-04-03T04:28:40;5.50;99.90
25556;DHT22;13447;57.174;-2.112;2023-04-03T04:31:07;5.50;99.90
25556;DHT22;13447;57.174;-2.112;2023-04-03T04:33:34;5.50;99.90
25556;DHT22;13447;57.174;-2.112;2023-04-03T04:36:01;5.50;99.90
25556;DHT22;13447;57.174;-2.112;2023-04-03T04:38:28;5.60;99.90
25556;DHT22;13447;57.174;-2.112;2023-04-03T04:40:55;5.60;99.90
25556;DHT22;13447;57.174;-2.112;2023-04-03T04:43:21;5.50;99.90
25556;DHT22;13447;57.174;-2.112;2023-04-03T04:45:48;5.50;99.90
25556;DHT22;13447;57.174;-2.112;2023-04-03T04:48:15;5.60;99.90
25556;DHT22;13447;57.174;-2.112;2023-04-03T04:50:42;5.60;99.90
25556;DHT22;13447;57.174;-2.112;2023-04-03T04:53:09;5.60;99.90
25556;DHT22;13447;57.174;-2.112;2023-04-03T04:55:36;5.60;99.90
25556;DHT22;13447;57.174;-2.112;2023-04-03T04:58:03;5.60;99.90
25556;DHT22;13447;57.174;-2.112;2023-04-03T05:00:30;5.60;99.90
25556;DHT22;13447;57.174;-2.112;2023-04-03T05:02:57;5.60;99.90
25556;DHT22;13447;57.174;-2.112;2023-04-03T05:05:24;5.60;99.90
25556;DHT22;13447;57.174;-2.112;2023-04-03T05:07:50;5.60;99.90
25556;DHT22;13447;57.174;-2.112;2023-04-03T05:10:17;5.60;99.90
25556;DHT22;13447;57.174;-2.112;2023-04-03T05:12:44;5.50;99.90
25556;DHT22;13447;57.174;-2.112;2023-04-03T05:15:11;5.60;99.90
25556;DHT22;13447;57.174;-2.112;2023-04-03T05:17:38;5.50;99.90
25556;DHT22;13447;57.174;-2.112;2023-04-03T05:20:05;5.50;99.90
25556;DHT22;13447;57.174;-2.112;2023-04-03T05:22:32;5.50;99.90
25556;DHT22;13447;57.174;-2.112;2023-04-03T05:24:59;5.40;99.90
25556;DHT22;13447;57.174;-2.112;2023-04-03T05:27:25;5.50;99.90
25556;DHT22;13447;57.174;-2.112;2023-04-03T05:29:54;5.50;99.90
25556;DHT22;13447;57.174;-2.112;2023-04-03T05:32:22;5.50;99.90
25556;DHT22;13447;57.174;-2.112;2023-04-03T05:34:49;5.50;99.90
25556;DHT22;13447;57.174;-2.112;2023-04-03T05:37:16;5.50;99.90
25556;DHT22;13447;57.174;-2.112;2023-04-03T05:39:43;5.50;99.90
25556;DHT22;13447;57.174;-2.112;2023-04-03T05:42:10;5.40;99.90
25556;DHT22;13447;57.174;-2.112;2023-04-03T05:44:38;5.50;99.90
25556;DHT22;13447;57.174;-2.112;2023-04-03T05:47:05;5.50;99.90
25556;DHT22;13447;57.174;-2.112;2023-04-03T05:49:31;5.50;99.90
25556;DHT22;13447;57.174;-2.112;2023-04-03T05:51:58;5.50;99.90
25556;DHT22;13447;57.174;-2.112;2023-04-03T05:54:26;5.40;99.90
25556;DHT22;13447;57.174;-2.112;2023-04-03T05:56:54;5.40;99.90
25556;DHT22;13447;57.174;-2.112;2023-04-03T05:59:21;5.50;99.90
25556;DHT22;13447;57.174;-2.112;2023-04-03T06:01:48;5.50;99.90
25556;DHT22;13447;57.174;-2.112;2023-04-03T06:04:15;5.50;99.90
25556;DHT22;13447;57.174;-2.112;2023-04-03T06:06:46;5.50;99.90
25556;DHT22;13447;57.174;-2.112;2023-04-03T06:09:14;5.60;99.90
25556;DHT22;13447;57.174;-2.112;2023-04-03T06:11:42;5.60;99.90
25556;DHT22;13447;57.174;-2.112;2023-04-03T06:14:09;5.60;99.90
25556;DHT22;13447;57.174;-2.112;2023-04-03T06:16:36;5.60;99.90
25556;DHT22;13447;57.174;-2.112;2023-04-03T06:19:06;5.60;99.90
25556;DHT22;13447;57.174;-2.112;2023-04-03T06:21:33;5.60;99.90
25556;DHT22;13447;57.174;-2.112;2023-04-03T06:24:00;5.70;99.90
25556;DHT22;13447;57.174;-2.112;2023-04-03T06:26:26;5.70;99.90
25556;DHT22;13447;57.174;-2.112;2023-04-03T06:28:53;5.70;99.90
25556;DHT22;13447;57.174;-2.112;2023-04-03T06:31:20;5.70;99.90
25556;DHT22;13447;57.174;-2.112;2023-04-03T06:33:47;5.80;99.90
25556;DHT22;13447;57.174;-2.112;2023-04-03T06:36:14;5.70;99.90
25556;DHT22;13447;57.174;-2.112;2023-04-03T06:38:46;5.80;99.90
25556;DHT22;13447;57.174;-2.112;2023-04-03T06:41:13;5.80;99.90
25556;DHT22;13447;57.174;-2.112;2023-04-03T06:43:40;5.90;99.90
25556;DHT22;13447;57.174;-2.112;2023-04-03T06:46:10;5.90;99.90
25556;DHT22;13447;57.174;-2.112;2023-04-03T06:48:38;5.90;99.90
25556;DHT22;13447;57.174;-2.112;2023-04-03T06:51:06;5.90;99.90
25556;DHT22;13447;57.174;-2.112;2023-04-03T06:53:33;5.90;99.90
25556;DHT22;13447;57.174;-2.112;2023-04-03T06:56:00;5.90;99.90
25556;DHT22;13447;57.174;-2.112;2023-04-03T06:58:27;6.00;99.90
25556;DHT22;13447;57.174;-2.112;2023-04-03T07:00:54;6.10;99.90
25556;DHT22;13447;57.174;-2.112;2023-04-03T07:03:21;6.00;99.90
25556;DHT22;13447;57.174;-2.112;2023-04-03T07:05:48;6.00;99.90
25556;DHT22;13447;57.174;-2.112;2023-04-03T07:08:15;6.10;99.90
25556;DHT22;13447;57.174;-2.112;2023-04-03T07:10:41;6.00;99.90
25556;DHT22;13447;57.174;-2.112;2023-04-03T07:13:08;6.10;99.90
25556;DHT22;13447;57.174;-2.112;2023-04-03T07:15:35;6.10;99.90
25556;DHT22;13447;57.174;-2.112;2023-04-03T07:18:03;6.10;99.90
25556;DHT22;13447;57.174;-2.112;2023-04-03T07:20:32;6.10;99.90
25556;DHT22;13447;57.174;-2.112;2023-04-03T07:22:59;6.10;99.90
25556;DHT22;13447;57.174;-2.112;2023-04-03T07:25:29;6.10;99.90
25556;DHT22;13447;57.174;-2.112;2023-04-03T07:27:56;6.00;99.90
25556;DHT22;13447;57.174;-2.112;2023-04-03T07:30:23;5.90;99.90
25556;DHT22;13447;57.174;-2.112;2023-04-03T07:32:50;5.90;99.90
25556;DHT22;13447;57.174;-2.112;2023-04-03T07:35:18;5.90;99.90
25556;DHT22;13447;57.174;-2.112;2023-04-03T07:37:45;5.90;99.90
25556;DHT22;13447;57.174;-2.112;2023-04-03T07:40:12;5.90;99.90
25556;DHT22;13447;57.174;-2.112;2023-04-03T07:42:40;5.90;99.90
25556;DHT22;13447;57.174;-2.112;2023-04-03T07:45:07;6.00;99.90
25556;DHT22;13447;57.174;-2.112;2023-04-03T07:47:34;6.00;99.90
25556;DHT22;13447;57.174;-2.112;2023-04-03T07:50:01;6.10;99.90
25556;DHT22;13447;57.174;-2.112;2023-04-03T07:52:28;6.10;99.90
25556;DHT22;13447;57.174;-2.112;2023-04-03T07:54:55;6.20;99.90
25556;DHT22;13447;57.174;-2.112;2023-04-03T07:57:22;6.30;99.90
25556;DHT22;13447;57.174;-2.112;2023-04-03T07:59:48;6.40;99.90
25556;DHT22;13447;57.174;-2.112;2023-04-03T08:02:16;6.40;99.90
25556;DHT22;13447;57.174;-2.112;2023-04-03T08:04:43;6.40;99.90
25556;DHT22;13447;57.174;-2.112;2023-04-03T08:07:10;6.40;99.90
25556;DHT22;13447;57.174;-2.112;2023-04-03T08:09:36;6.50;99.90
25556;DHT22;13447;57.174;-2.112;2023-04-03T08:12:03;6.60;99.90
25556;DHT22;13447;57.174;-2.112;2023-04-03T08:14:31;6.70;99.90
25556;DHT22;13447;57.174;-2.112;2023-04-03T08:17:00;6.70;93.10
25556;DHT22;13447;57.174;-2.112;2023-04-03T08:19:29;6.50;53.80
25556;DHT22;13447;57.174;-2.112;2023-04-03T08:21:56;6.50;56.10
25556;DHT22;13447;57.174;-2.112;2023-04-03T08:24:25;6.50;80.90
25556;DHT22;13447;57.174;-2.112;2023-04-03T08:26:51;6.60;99.90
25556;DHT22;13447;57.174;-2.112;2023-04-03T08:29:18;6.80;78.00
25556;DHT22;13447;57.174;-2.112;2023-04-03T08:31:45;6.90;26.00
25556;DHT22;13447;57.174;-2.112;2023-04-03T08:34:13;6.90;13.30
25556;DHT22;13447;57.174;-2.112;2023-04-03T08:36:41;6.80;22.50
25556;DHT22;13447;57.174;-2.112;2023-04-03T08:39:08;6.70;29.50
25556;DHT22;13447;57.174;-2.112;2023-04-03T08:41:43;6.70;30.70
25556;DHT22;13447;57.174;-2.112;2023-04-03T08:46:46;6.70;25.90
25556;DHT22;13447;57.174;-2.112;2023-04-03T08:49:18;6.70;38.30
25556;DHT22;13447;57.174;-2.112;2023-04-03T08:51:48;6.70;19.00
25556;DHT22;13447;57.174;-2.112;2023-04-03T08:54:24;6.70;35.50
25556;DHT22;13447;57.174;-2.112;2023-04-03T08:56:53;6.80;42.90
25556;DHT22;13447;57.174;-2.112;2023-04-03T08:59:25;7.10;1.00
25556;DHT22;13447;57.174;-2.112;2023-04-03T09:01:53;7.10;1.00
25556;DHT22;13447;57.174;-2.112;2023-04-03T09:04:20;6.70;21.40
25556;DHT22;13447;57.174;-2.112;2023-04-03T09:06:54;6.70;53.70
25556;DHT22;13447;57.174;-2.112;2023-04-03T09:09:30;6.70;51.00
25556;DHT22;13447;57.174;-2.112;2023-04-03T09:12:13;6.80;45.50
25556;DHT22;13447;57.174;-2.112;2023-04-03T09:17:41;7.40;1.00
25556;DHT22;13447;57.174;-2.112;2023-04-03T09:22:43;7.00;1.00
25556;DHT22;13447;57.174;-2.112;2023-04-03T09:25:21;6.70;1.00
25556;DHT22;13447;57.174;-2.112;2023-04-03T09:27:48;6.70;34.50
25556;DHT22;13447;57.174;-2.112;2023-04-03T09:30:20;6.90;27.10
25556;DHT22;13447;57.174;-2.112;2023-04-03T09:32:48;7.00;1.00
25556;DHT22;13447;57.174;-2.112;2023-04-03T09:35:18;6.90;1.00
25556;DHT22;13447;57.174;-2.112;2023-04-03T09:38:20;7.20;1.00
25556;DHT22;13447;57.174;-2.112;2023-04-03T09:40:46;7.40;1.00
25556;DHT22;13447;57.174;-2.112;2023-04-03T09:45:44;7.60;1.00
25556;DHT22;13447;57.174;-2.112;2023-04-03T09:53:26;7.80;1.00
25556;DHT22;13447;57.174;-2.112;2023-04-03T09:55:53;8.10;1.00
25556;DHT22;13447;57.174;-2.112;2023-04-03T09:58:27;8.70;1.00
25556;DHT22;13447;57.174;-2.112;2023-04-03T10:01:23;8.60;1.00
25556;DHT22;13447;57.174;-2.112;2023-04-03T10:06:34;9.30;1.00
25556;DHT22;13447;57.174;-2.112;2023-04-03T10:09:16;8.90;1.00
25556;DHT22;13447;57.174;-2.112;2023-04-03T10:12:26;9.10;1.00
25556;DHT22;13447;57.174;-2.112;2023-04-03T10:14:39;9.00;1.00
25556;DHT22;13447;57.174;-2.112;2023-04-03T10:19:47;9.40;1.00
25556;DHT22;13447;57.174;-2.112;2023-04-03T10:24:47;10.50;1.00
25556;DHT22;13447;57.174;-2.112;2023-04-03T10:27:21;10.70;1.00
25556;DHT22;13447;57.174;-2.112;2023-04-03T10:33:05;9.90;1.00
25556;DHT22;13447;57.174;-2.112;2023-04-03T10:42:43;9.30;1.00
25556;DHT22;13447;57.174;-2.112;2023-04-03T10:45:27;9.50;1.00
25556;DHT22;13447;57.174;-2.112;2023-04-03T10:48:14;9.30;1.00
25556;DHT22;13447;57.174;-2.112;2023-04-03T10:51:27;9.60;1.00
25556;DHT22;13447;57.174;-2.112;2023-04-03T10:58:44;10.10;1.00
25556;DHT22;13447;57.174;-2.112;2023-04-03T11:01:16;9.60;1.00
25556;DHT22;13447;57.174;-2.112;2023-04-03T11:03:47;8.90;1.00
25556;DHT22;13447;57.174;-2.112;2023-04-03T11:06:15;8.80;1.00
25556;DHT22;13447;57.174;-2.112;2023-04-03T11:11:15;9.00;1.00
25556;DHT22;13447;57.174;-2.112;2023-04-03T11:13:45;8.90;1.00
25556;DHT22;13447;57.174;-2.112;2023-04-03T11:16:15;8.60;1.00
25556;DHT22;13447;57.174;-2.112;2023-04-03T11:19:11;9.40;1.00
25556;DHT22;13447;57.174;-2.112;2023-04-03T11:21:33;9.20;1.00
25556;DHT22;13447;57.174;-2.112;2023-04-03T11:24:02;9.70;1.00
25556;DHT22;13447;57.174;-2.112;2023-04-03T11:26:35;9.60;1.00
25556;DHT22;13447;57.174;-2.112;2023-04-03T11:29:09;9.70;1.00
25556;DHT22;13447;57.174;-2.112;2023-04-03T11:31:56;10.00;1.00
25556;DHT22;13447;57.174;-2.112;2023-04-03T11:34:31;10.40;1.00
25556;DHT22;13447;57.174;-2.112;2023-04-03T11:37:01;10.00;1.00
25556;DHT22;13447;57.174;-2.112;2023-04-03T11:39:34;9.90;1.00
25556;DHT22;13447;57.174;-2.112;2023-04-03T11:44:40;10.30;1.00
25556;DHT22;13447;57.174;-2.112;2023-04-03T11:47:08;10.10;1.00
25556;DHT22;13447;57.174;-2.112;2023-04-03T11:49:56;10.10;1.00
25556;DHT22;13447;57.174;-2.112;2023-04-03T12:13:38;10.30;1.00
25556;DHT22;13447;57.174;-2.112;2023-04-03T12:16:29;10.60;1.00
25556;DHT22;13447;57.174;-2.112;2023-04-03T12:21:24;10.50;1.00
25556;DHT22;13447;57.174;-2.112;2023-04-03T12:31:52;10.10;1.00
25556;DHT22;13447;57.174;-2.112;2023-04-03T12:36:54;9.90;1.00
25556;DHT22;13447;57.174;-2.112;2023-04-03T12:39:33;10.30;1.00
25556;DHT22;13447;57.174;-2.112;2023-04-03T12:47:55;10.20;1.00
25556;DHT22;13447;57.174;-2.112;2023-04-03T12:50:13;10.40;1.00
25556;DHT22;13447;57.174;-2.112;2023-04-03T12:52:47;10.90;1.00
25556;DHT22;13447;57.174;-2.112;2023-04-03T12:55:17;11.20;1.00
25556;DHT22;13447;57.174;-2.112;2023-04-03T12:57:44;11.60;1.00
25556;DHT22;13447;57.174;-2.112;2023-04-03T13:02:39;11.50;99.90
25556;DHT22;13447;57.174;-2.112;2023-04-03T13:05:15;11.10;1.00
25556;DHT22;13447;57.174;-2.112;2023-04-03T13:07:44;11.10;99.90
25556;DHT22;13447;57.174;-2.112;2023-04-03T13:10:15;11.00;99.90
25556;DHT22;13447;57.174;-2.112;2023-04-03T13:15:17;10.80;1.00
25556;DHT22;13447;57.174;-2.112;2023-04-03T13:17:44;11.00;1.00
25556;DHT22;13447;57.174;-2.112;2023-04-03T13:20:18;11.10;99.90
25556;DHT22;13447;57.174;-2.112;2023-04-03T13:22:50;10.90;1.00
25556;DHT22;13447;57.174;-2.112;2023-04-03T13:25:18;11.10;1.00
25556;DHT22;13447;57.174;-2.112;2023-04-03T13:27:46;11.40;1.00
25556;DHT22;13447;57.174;-2.112;2023-04-03T13:30:29;11.40;99.90
25556;DHT22;13447;57.174;-2.112;2023-04-03T13:32:57;11.30;1.00
25556;DHT22;13447;57.174;-2.112;2023-04-03T13:37:56;11.20;1.00
25556;DHT22;13447;57.174;-2.112;2023-04-03T13:40:23;10.80;1.00
25556;DHT22;13447;57.174;-2.112;2023-04-03T13:43:03;10.40;1.00
25556;DHT22;13447;57.174;-2.112;2023-04-03T13:45:32;10.10;1.00
25556;DHT22;13447;57.174;-2.112;2023-04-03T13:48:10;9.60;1.00
25556;DHT22;13447;57.174;-2.112;2023-04-03T13:50:52;9.40;1.00
25556;DHT22;13447;57.174;-2.112;2023-04-03T13:53:19;9.30;1.00
25556;DHT22;13447;57.174;-2.112;2023-04-03T13:55:54;9.40;1.00
25556;DHT22;13447;57.174;-2.112;2023-04-03T13:58:27;8.90;1.00
25556;DHT22;13447;57.174;-2.112;2023-04-03T14:05:50;8.50;1.00
25556;DHT22;13447;57.174;-2.112;2023-04-03T14:08:18;8.50;1.00
25556;DHT22;13447;57.174;-2.112;2023-04-03T14:10:52;8.40;1.00
25556;DHT22;13447;57.174;-2.112;2023-04-03T14:13:19;8.40;1.00
25556;DHT22;13447;57.174;-2.112;2023-04-03T14:15:47;8.40;1.00
25556;DHT22;13447;57.174;-2.112;2023-04-03T14:18:16;8.40;1.00
25556;DHT22;13447;57.174;-2.112;2023-04-03T14:20:43;8.50;1.00
25556;DHT22;13447;57.174;-2.112;2023-04-03T14:23:12;8.20;1.00
25556;DHT22;13447;57.174;-2.112;2023-04-03T14:25:48;8.30;1.00
25556;DHT22;13447;57.174;-2.112;2023-04-03T14:28:17;8.60;1.00
25556;DHT22;13447;57.174;-2.112;2023-04-03T14:30:45;8.50;1.00
25556;DHT22;13447;57.174;-2.112;2023-04-03T14:33:13;8.30;1.00
25556;DHT22;13447;57.174;-2.112;2023-04-03T14:35:41;8.20;1.00
25556;DHT22;13447;57.174;-2.112;2023-04-03T14:38:28;8.20;1.00
25556;DHT22;13447;57.174;-2.112;2023-04-03T14:40:56;8.10;1.00
25556;DHT22;13447;57.174;-2.112;2023-04-03T14:43:39;8.10;1.00
25556;DHT22;13447;57.174;-2.112;2023-04-03T14:46:10;8.20;1.00
25556;DHT22;13447;57.174;-2.112;2023-04-03T14:48:38;8.20;1.00
25556;DHT22;13447;57.174;-2.112;2023-04-03T14:51:05;8.30;1.00
25556;DHT22;13447;57.174;-2.112;2023-04-03T14:53:32;8.20;1.00
25556;DHT22;13447;57.174;-2.112;2023-04-03T14:56:04;8.20;1.00
25556;DHT22;13447;57.174;-2.112;2023-04-03T14:58:31;8.30;1.00
25556;DHT22;13447;57.174;-2.112;2023-04-03T15:00:58;8.30;1.00
25556;DHT22;13447;57.174;-2.112;2023-04-03T15:03:25;8.40;1.00
25556;DHT22;13447;57.174;-2.112;2023-04-03T15:05:52;8.20;1.00
25556;DHT22;13447;57.174;-2.112;2023-04-03T15:08:26;8.20;1.00
25556;DHT22;13447;57.174;-2.112;2023-04-03T15:10:55;8.20;1.00
25556;DHT22;13447;57.174;-2.112;2023-04-03T15:13:23;8.10;1.00
25556;DHT22;13447;57.174;-2.112;2023-04-03T15:15:50;8.10;1.00
25556;DHT22;13447;57.174;-2.112;2023-04-03T15:18:24;8.10;1.00
25556;DHT22;13447;57.174;-2.112;2023-04-03T15:20:55;8.10;1.00
25556;DHT22;13447;57.174;-2.112;2023-04-03T15:25:52;8.10;1.00
25556;DHT22;13447;57.174;-2.112;2023-04-03T15:28:25;7.90;1.00
25556;DHT22;13447;57.174;-2.112;2023-04-03T15:30:54;7.90;1.00
25556;DHT22;13447;57.174;-2.112;2023-04-03T15:33:21;7.90;1.00
25556;DHT22;13447;57.174;-2.112;2023-04-03T15:35:47;8.00;1.00
25556;DHT22;13447;57.174;-2.112;2023-04-03T15:38:14;8.10;1.00
25556;DHT22;13447;57.174;-2.112;2023-04-03T15:40:41;7.90;1.00
25556;DHT22;13447;57.174;-2.112;2023-04-03T15:43:09;8.00;1.00
25556;DHT22;13447;57.174;-2.112;2023-04-03T15:45:36;7.90;1.00
25556;DHT22;13447;57.174;-2.112;2023-04-03T15:48:04;7.90;1.00
25556;DHT22;13447;57.174;-2.112;2023-04-03T15:50:31;7.90;1.00
25556;DHT22;13447;57.174;-2.112;2023-04-03T15:52:58;7.90;6.90
25556;DHT22;13447;57.174;-2.112;2023-04-03T15:55:28;8.00;9.60
25556;DHT22;13447;57.174;-2.112;2023-04-03T15:57:56;7.90;18.10
25556;DHT22;13447;57.174;-2.112;2023-04-03T16:00:23;7.90;16.50
25556;DHT22;13447;57.174;-2.112;2023-04-03T16:02:51;7.90;33.10
25556;DHT22;13447;57.174;-2.112;2023-04-03T16:05:19;7.90;25.80
25556;DHT22;13447;57.174;-2.112;2023-04-03T16:07:46;7.90;38.00
25556;DHT22;13447;57.174;-2.112;2023-04-03T16:10:13;7.90;48.70
25556;DHT22;13447;57.174;-2.112;2023-04-03T16:12:40;7.90;65.20
25556;DHT22;13447;57.174;-2.112;2023-04-03T16:15:07;8.10;75.80
25556;DHT22;13447;57.174;-2.112;2023-04-03T16:17:35;8.00;60.00
25556;DHT22;13447;57.174;-2.112;2023-04-03T16:20:02;8.00;67.50
25556;DHT22;13447;57.174;-2.112;2023-04-03T16:22:30;7.90;82.70
25556;DHT22;13447;57.174;-2.112;2023-04-03T16:24:57;8.00;95.90
25556;DHT22;13447;57.174;-2.112;2023-04-03T16:27:24;8.00;99.90
25556;DHT22;13447;57.174;-2.112;2023-04-03T16:29:54;8.00;97.30
25556;DHT22;13447;57.174;-2.112;2023-04-03T16:32:22;8.00;99.90
25556;DHT22;13447;57.174;-2.112;2023-04-03T16:34:49;8.00;99.90
25556;DHT22;13447;57.174;-2.112;2023-04-03T16:37:16;8.00;94.60
25556;DHT22;13447;57.174;-2.112;2023-04-03T16:39:43;7.90;99.90
25556;DHT22;13447;57.174;-2.112;2023-04-03T16:42:10;7.80;99.90
25556;DHT22;13447;57.174;-2.112;2023-04-03T16:44:36;7.90;99.90
25556;DHT22;13447;57.174;-2.112;2023-04-03T16:47:03;7.80;99.90
25556;DHT22;13447;57.174;-2.112;2023-04-03T16:49:30;7.80;99.90
25556;DHT22;13447;57.174;-2.112;2023-04-03T16:52:03;7.70;99.90
25556;DHT22;13447;57.174;-2.112;2023-04-03T16:54:31;7.60;99.90
25556;DHT22;13447;57.174;-2.112;2023-04-03T16:56:58;7.60;99.90
25556;DHT22;13447;57.174;-2.112;2023-04-03T16:59:25;7.50;99.90
25556;DHT22;13447;57.174;-2.112;2023-04-03T17:01:52;7.50;99.90
25556;DHT22;13447;57.174;-2.112;2023-04-03T17:04:19;7.50;99.90
25556;DHT22;13447;57.174;-2.112;2023-04-03T17:06:45;7.40;99.90
25556;DHT22;13447;57.174;-2.112;2023-04-03T17:09:14;7.40;99.90
25556;DHT22;13447;57.174;-2.112;2023-04-03T17:11:41;7.40;99.90
25556;DHT22;13447;57.174;-2.112;2023-04-03T17:14:11;7.40;99.90
25556;DHT22;13447;57.174;-2.112;2023-04-03T17:16:38;7.30;99.90
25556;DHT22;13447;57.174;-2.112;2023-04-03T17:19:05;7.30;99.90
25556;DHT22;13447;57.174;-2.112;2023-04-03T17:21:32;7.30;99.90
25556;DHT22;13447;57.174;-2.112;2023-04-03T17:24:00;7.30;99.90
25556;DHT22;13447;57.174;-2.112;2023-04-03T17:26:28;7.30;99.90
25556;DHT22;13447;57.174;-2.112;2023-04-03T17:28:55;7.30;99.90
25556;DHT22;13447;57.174;-2.112;2023-04-03T17:31:22;7.20;99.90
25556;DHT22;13447;57.174;-2.112;2023-04-03T17:33:49;7.20;99.90
25556;DHT22;13447;57.174;-2.112;2023-04-03T17:36:16;7.20;99.90